This is the latest recevied weather packets stored in our database for station/object NM5PB. If no packets are shown the sender has not sent any weather packets the latest 1 day(s).
| Time | Temp. | Humidity | Pressure | Rain* | Wind** | Luminosity | Snow |
|---|---|---|---|---|---|---|---|
| 1778050264 | 3.33° C | 77% | - | 0 mm | - | - | - |
| 1778049664 | 3.33° C | 77% | - | 0 mm | - | - | - |
| 1778049064 | 3.33° C | 77% | - | 0 mm | - | - | - |
| 1778048464 | 2.78° C | 78% | - | 0 mm | - | - | - |
| 1778047864 | 3.33° C | 77% | - | 0 mm | - | - | - |
| 1778046664 | 3.89° C | 73% | - | 0 mm | - | - | - |
| 1778046064 | 4.44° C | 72% | - | 0 mm | - | - | - |
| 1778045464 | 5° C | 70% | - | 0 mm | - | - | - |
| 1778044864 | 5.56° C | 66% | - | 0 mm | - | - | - |
| 1778044264 | 6.11° C | 62% | - | 0 mm | - | - | - |
| 1778043664 | 6.67° C | 60% | - | 0 mm | - | - | - |
| 1778043064 | 7.22° C | 57% | - | 0 mm | - | - | - |
| 1778042464 | 7.78° C | 54% | - | 0 mm | - | - | - |
| 1778041864 | 8.33° C | 51% | - | 0 mm | - | - | - |
| 1778041264 | 8.89° C | 51% | - | 0 mm | - | - | - |
| 1778040664 | 8.89° C | 50% | - | 0 mm | - | - | - |
| 1778040064 | 8.89° C | 50% | - | 0 mm | - | - | - |
| 1778039464 | 8.89° C | 51% | - | 0 mm | - | - | - |
| 1778038864 | 8.89° C | 50% | - | 0 mm | - | - | - |
| 1778038264 | 8.89° C | 50% | - | 0 mm | - | - | - |
| 1778037664 | 9.44° C | 50% | - | 0 mm | - | - | - |
| 1778037064 | 9.44° C | 50% | - | 0 mm | - | - | - |
| 1778036464 | 9.44° C | 49% | - | 0 mm | - | - | - |
| 1778035864 | 9.44° C | 49% | - | 0 mm | - | - | - |
| 1778035264 | 10° C | 49% | - | 0 mm | - | - | - |
* Rain latest hour (hover to see other rain measurements)
** Current wind speed in m/s (hover to see current wind gust speed)